createdAt,value
2022-10-27T00:03:54.265Z,990.1
2022-10-27T00:18:34.994Z,990.4
2022-10-27T00:33:11.134Z,990.4
2022-10-27T00:47:47.468Z,990.4
2022-10-27T01:02:18.526Z,990.4
2022-10-27T01:16:52.999Z,990.5
2022-10-27T01:31:26.426Z,990.5
2022-10-27T01:46:01.036Z,990.5
2022-10-27T02:00:33.457Z,990.5
2022-10-27T02:15:08.501Z,990.4
2022-10-27T02:29:48.373Z,990.5
2022-10-27T02:44:26.000Z,990.5
2022-10-27T02:58:55.007Z,990.4
2022-10-27T03:13:29.659Z,990.4
2022-10-27T03:28:02.893Z,990.3
2022-10-27T03:42:35.752Z,990.4
2022-10-27T03:57:15.625Z,990.3
2022-10-27T04:11:52.514Z,990.3
2022-10-27T04:26:23.823Z,990.3
2022-10-27T04:41:05.174Z,990.3
2022-10-27T04:55:42.451Z,990.2
2022-10-27T05:10:13.069Z,990.2
2022-10-27T05:24:47.573Z,990
2022-10-27T05:39:27.854Z,990.1
2022-10-27T05:54:06.826Z,990.3
2022-10-27T06:08:42.762Z,990.4
2022-10-27T06:23:18.835Z,990.4
2022-10-27T06:37:51.084Z,990.6
2022-10-27T06:52:31.119Z,990.7
2022-10-27T07:07:10.866Z,990.8
2022-10-27T07:21:42.376Z,990.7
2022-10-27T07:36:16.830Z,990.5
2022-10-27T07:50:51.942Z,990.5
2022-10-27T08:05:28.670Z,990.4
2022-10-27T08:20:03.417Z,990.3
2022-10-27T08:34:38.706Z,990.3
2022-10-27T08:49:15.908Z,990.3
2022-10-27T09:03:53.816Z,990.3
2022-10-27T09:18:39.459Z,990.3
2022-10-27T09:33:17.764Z,990.1
2022-10-27T09:47:46.387Z,990
2022-10-27T10:02:20.612Z,989.9
2022-10-27T10:16:55.334Z,989.7
2022-10-27T10:31:31.261Z,989.6
2022-10-27T10:46:05.107Z,989.6
2022-10-27T11:00:39.767Z,989.3
2022-10-27T11:15:15.480Z,989.3
2022-10-27T11:29:52.390Z,989
2022-10-27T11:44:28.889Z,989
2022-10-27T11:59:03.306Z,988.9
2022-10-27T12:13:38.842Z,988.8
2022-10-27T12:42:48.243Z,988.5
2022-10-27T12:57:23.716Z,988.4
2022-10-27T13:12:04.004Z,988.2
2022-10-27T13:26:34.276Z,988.3
2022-10-27T13:41:14.972Z,988.1
2022-10-27T13:55:46.133Z,988.2
2022-10-27T14:10:21.393Z,988.2
2022-10-27T14:24:52.547Z,988.1
2022-10-27T14:39:26.703Z,988
2022-10-27T14:54:01.145Z,988.1
2022-10-27T15:08:34.994Z,988
2022-10-27T15:23:07.515Z,988
2022-10-27T15:37:41.171Z,988.1
2022-10-27T15:52:15.668Z,988.1
2022-10-27T16:06:50.244Z,988.3
2022-10-27T16:21:23.797Z,988.1
2022-10-27T16:35:57.347Z,988.4
2022-10-27T16:50:33.395Z,988.4
2022-10-27T17:05:09.259Z,988.2
2022-10-27T17:19:42.573Z,987.9
2022-10-27T17:34:17.483Z,988
2022-10-27T17:48:52.503Z,988.3
2022-10-27T18:03:25.106Z,988.3
2022-10-27T18:18:01.054Z,988.2
2022-10-27T18:32:34.288Z,988.3
2022-10-27T18:47:06.637Z,988.5
2022-10-27T19:01:39.949Z,988.4
2022-10-27T19:16:14.822Z,988.4
2022-10-27T19:30:48.420Z,988.4
2022-10-27T19:45:27.770Z,988.4
2022-10-27T20:00:08.523Z,988.3
2022-10-27T20:14:33.902Z,988.4
2022-10-27T20:29:08.310Z,988.4
2022-10-27T20:43:42.400Z,988.4
2022-10-27T20:58:16.368Z,988.4
2022-10-27T21:12:48.982Z,988.4
2022-10-27T21:27:23.280Z,988.2
2022-10-27T21:41:57.150Z,988.2
2022-10-27T21:56:32.472Z,988.2
2022-10-27T22:11:13.628Z,988.2
2022-10-27T22:25:50.300Z,988.2
2022-10-27T22:40:20.810Z,988.1
2022-10-27T22:54:54.383Z,988
2022-10-27T23:09:27.757Z,987.9
2022-10-27T23:24:02.011Z,988
2022-10-27T23:38:37.130Z,988
2022-10-27T23:53:11.621Z,988
